createdAt,value
2023-02-23T00:00:39.847Z,0
2023-02-23T00:01:39.850Z,0
2023-02-23T00:02:40.020Z,0
2023-02-23T00:03:39.954Z,0
2023-02-23T00:04:39.840Z,0
2023-02-23T00:05:39.845Z,0
2023-02-23T00:06:39.895Z,0
2023-02-23T00:07:39.846Z,0
2023-02-23T00:08:39.850Z,0
2023-02-23T00:09:39.845Z,0
2023-02-23T00:10:39.842Z,0
2023-02-23T00:11:39.851Z,0
2023-02-23T00:12:39.849Z,0
2023-02-23T00:13:39.850Z,0
2023-02-23T00:14:39.845Z,0
2023-02-23T00:15:39.858Z,0
2023-02-23T00:16:39.887Z,0
2023-02-23T00:17:39.841Z,0
2023-02-23T00:18:39.862Z,0
2023-02-23T00:19:39.844Z,0
2023-02-23T00:20:39.862Z,0
2023-02-23T00:21:39.836Z,0
2023-02-23T00:22:39.840Z,0
2023-02-23T00:23:39.859Z,0
2023-02-23T00:24:39.843Z,0
2023-02-23T00:25:39.850Z,0
2023-02-23T00:26:39.845Z,0
2023-02-23T00:27:39.852Z,0
2023-02-23T00:28:39.856Z,0
2023-02-23T00:29:39.844Z,0
2023-02-23T00:30:39.889Z,0
2023-02-23T00:31:39.950Z,0
2023-02-23T00:32:39.995Z,0
2023-02-23T00:33:39.857Z,0
2023-02-23T00:34:39.850Z,0
2023-02-23T00:35:39.846Z,0
2023-02-23T00:36:39.859Z,0
2023-02-23T00:37:39.848Z,0
2023-02-23T00:38:39.871Z,0
2023-02-23T00:39:39.852Z,0
2023-02-23T00:40:39.866Z,0
2023-02-23T00:41:39.848Z,0
2023-02-23T00:42:39.835Z,0
2023-02-23T00:43:39.866Z,0
2023-02-23T00:44:39.853Z,0
2023-02-23T00:45:39.990Z,0
2023-02-23T00:46:39.843Z,0
2023-02-23T00:47:39.853Z,0
2023-02-23T00:48:40.016Z,0
2023-02-23T00:49:39.848Z,0
2023-02-23T00:50:39.855Z,0
2023-02-23T00:51:39.866Z,0
2023-02-23T00:52:39.847Z,0
2023-02-23T00:53:39.855Z,0
2023-02-23T00:54:39.862Z,0
2023-02-23T00:55:39.849Z,0
2023-02-23T00:56:39.849Z,0
2023-02-23T00:57:39.848Z,0
2023-02-23T00:58:39.864Z,0
2023-02-23T00:59:39.843Z,0
2023-02-23T01:00:39.853Z,0
2023-02-23T01:01:39.927Z,0
2023-02-23T01:02:39.923Z,0
2023-02-23T01:03:39.860Z,0
2023-02-23T01:04:39.860Z,0
2023-02-23T01:05:39.864Z,0
2023-02-23T01:06:39.840Z,0
2023-02-23T01:07:39.847Z,0
2023-02-23T01:08:39.857Z,0
2023-02-23T01:09:39.837Z,0
2023-02-23T01:10:39.852Z,0
2023-02-23T01:11:39.849Z,0
2023-02-23T01:12:39.851Z,0
2023-02-23T01:13:39.857Z,0
2023-02-23T01:14:39.895Z,0
2023-02-23T01:15:39.894Z,0
2023-02-23T01:16:39.857Z,0
2023-02-23T01:17:39.840Z,0
2023-02-23T01:18:39.849Z,0
2023-02-23T01:19:39.846Z,0
2023-02-23T01:20:41.692Z,0
2023-02-23T01:21:39.845Z,0
2023-02-23T01:22:39.850Z,0
2023-02-23T01:23:39.847Z,0
2023-02-23T01:24:39.836Z,0
2023-02-23T01:25:39.838Z,0
2023-02-23T01:26:39.848Z,0
2023-02-23T01:27:39.843Z,0
2023-02-23T01:28:39.849Z,0
2023-02-23T01:29:39.838Z,0
2023-02-23T01:30:40.006Z,0
2023-02-23T01:31:39.965Z,0
2023-02-23T01:32:39.877Z,0
2023-02-23T01:33:39.849Z,0
2023-02-23T01:34:39.840Z,0
2023-02-23T01:35:39.839Z,0
2023-02-23T01:36:39.847Z,0
2023-02-23T01:37:39.848Z,0
2023-02-23T01:38:39.851Z,0
2023-02-23T01:39:39.834Z,0
2023-02-23T01:40:39.837Z,0
2023-02-23T01:41:39.836Z,0
2023-02-23T01:42:39.842Z,0
2023-02-23T01:43:39.850Z,0
2023-02-23T01:44:39.838Z,0
2023-02-23T01:45:39.850Z,0
2023-02-23T01:46:39.853Z,0
2023-02-23T01:47:39.839Z,0
2023-02-23T01:48:39.873Z,0
2023-02-23T01:49:39.853Z,0
2023-02-23T01:50:39.863Z,0
2023-02-23T01:51:39.853Z,0
2023-02-23T01:52:39.840Z,0
2023-02-23T01:53:39.855Z,0
2023-02-23T01:54:39.840Z,0
2023-02-23T01:55:39.835Z,0
2023-02-23T01:56:39.845Z,0
2023-02-23T01:57:39.847Z,0
2023-02-23T01:58:39.856Z,0
2023-02-23T01:59:39.875Z,0
2023-02-23T02:00:39.845Z,0
2023-02-23T02:01:39.874Z,0
2023-02-23T02:02:39.840Z,0
2023-02-23T02:03:39.851Z,0
2023-02-23T02:04:39.860Z,0
2023-02-23T02:05:39.839Z,0
2023-02-23T02:06:39.839Z,0
2023-02-23T02:07:39.835Z,0
2023-02-23T02:08:39.857Z,0
2023-02-23T02:09:39.842Z,0
2023-02-23T02:10:39.842Z,0
2023-02-23T02:11:39.838Z,0
2023-02-23T02:12:39.839Z,0
2023-02-23T02:13:39.849Z,0
2023-02-23T02:14:39.839Z,0
2023-02-23T02:15:39.843Z,0
2023-02-23T02:16:39.842Z,0
2023-02-23T02:17:39.832Z,0
2023-02-23T02:18:39.833Z,0
2023-02-23T02:19:39.831Z,0
2023-02-23T02:20:39.829Z,0
2023-02-23T02:21:39.839Z,0
2023-02-23T02:22:39.829Z,0
2023-02-23T02:23:39.850Z,0
2023-02-23T02:24:39.933Z,0
2023-02-23T02:25:39.829Z,0
2023-02-23T02:26:39.854Z,0
2023-02-23T02:27:39.839Z,0
2023-02-23T02:28:39.847Z,0
2023-02-23T02:29:39.835Z,0
2023-02-23T02:30:39.873Z,0
2023-02-23T02:31:39.956Z,0
2023-02-23T02:32:39.824Z,0
2023-02-23T02:33:39.839Z,0
2023-02-23T02:34:39.844Z,0
2023-02-23T02:35:39.844Z,0
2023-02-23T02:36:39.843Z,0
2023-02-23T02:37:39.832Z,0
2023-02-23T02:38:39.851Z,0
2023-02-23T02:39:39.836Z,0
2023-02-23T02:40:39.830Z,0
2023-02-23T02:41:39.833Z,0
2023-02-23T02:42:39.842Z,0
2023-02-23T02:43:39.848Z,0
2023-02-23T02:44:39.832Z,0
2023-02-23T02:45:39.849Z,0
2023-02-23T02:46:39.833Z,0
2023-02-23T02:47:39.839Z,0
2023-02-23T02:48:39.854Z,0
2023-02-23T02:49:39.833Z,0
2023-02-23T02:50:39.835Z,0
2023-02-23T02:51:39.830Z,0
2023-02-23T02:52:39.833Z,0
2023-02-23T02:53:39.849Z,0
2023-02-23T02:54:39.830Z,0
2023-02-23T02:55:39.850Z,0
2023-02-23T02:56:39.827Z,0
2023-02-23T02:57:39.842Z,0
2023-02-23T02:58:39.848Z,0
2023-02-23T02:59:39.838Z,0
2023-02-23T03:00:39.854Z,0
2023-02-23T03:01:40.020Z,0
2023-02-23T03:02:39.849Z,0
2023-02-23T03:03:39.851Z,0
2023-02-23T03:04:39.835Z,0
2023-02-23T03:05:39.832Z,0
2023-02-23T03:06:39.832Z,0
2023-02-23T03:07:39.848Z,0
2023-02-23T03:08:39.852Z,0
2023-02-23T03:09:39.845Z,0
2023-02-23T03:10:39.840Z,0
2023-02-23T03:11:39.831Z,0
2023-02-23T03:12:39.833Z,0
2023-02-23T03:13:39.850Z,0
2023-02-23T03:14:39.856Z,0
2023-02-23T03:15:39.857Z,0
2023-02-23T03:16:39.858Z,0
2023-02-23T03:17:39.832Z,0
2023-02-23T03:18:39.845Z,0
2023-02-23T03:19:39.845Z,0
2023-02-23T03:20:39.848Z,0
2023-02-23T03:21:39.839Z,0
2023-02-23T03:22:39.845Z,0
2023-02-23T03:23:39.847Z,0
2023-02-23T03:24:39.841Z,0
2023-02-23T03:25:39.835Z,0
2023-02-23T03:26:39.835Z,0
2023-02-23T03:27:39.843Z,0
2023-02-23T03:28:39.853Z,0
2023-02-23T03:29:39.848Z,0
2023-02-23T03:30:39.867Z,0
2023-02-23T03:31:39.983Z,0
2023-02-23T03:32:39.906Z,0
2023-02-23T03:33:39.850Z,0
2023-02-23T03:34:39.848Z,0
2023-02-23T03:35:39.833Z,0
2023-02-23T03:36:39.850Z,0
2023-02-23T03:37:39.840Z,0
2023-02-23T03:38:39.850Z,0
2023-02-23T03:39:39.851Z,0
2023-02-23T03:40:39.833Z,0
2023-02-23T03:41:39.849Z,0
2023-02-23T03:42:39.832Z,0
2023-02-23T03:43:39.859Z,0
2023-02-23T03:44:39.832Z,0
2023-02-23T03:45:39.923Z,0
2023-02-23T03:46:39.834Z,0
2023-02-23T03:47:39.837Z,0
2023-02-23T03:48:39.862Z,0
2023-02-23T03:49:39.958Z,0
2023-02-23T03:50:39.848Z,0
2023-02-23T03:51:39.830Z,0
2023-02-23T03:52:39.841Z,0
2023-02-23T03:53:39.854Z,0
2023-02-23T03:54:39.849Z,0
2023-02-23T03:55:39.840Z,0
2023-02-23T03:56:39.837Z,0
2023-02-23T03:57:39.842Z,0
2023-02-23T03:58:39.856Z,0
2023-02-23T03:59:39.840Z,0
2023-02-23T04:00:39.841Z,0
2023-02-23T04:01:39.902Z,0
2023-02-23T04:02:39.847Z,0
2023-02-23T04:03:39.900Z,0
2023-02-23T04:04:39.850Z,0
2023-02-23T04:05:39.826Z,0
2023-02-23T04:06:39.842Z,0
2023-02-23T04:07:39.833Z,0
2023-02-23T04:08:39.851Z,0
2023-02-23T04:09:39.840Z,0
2023-02-23T04:10:39.837Z,0
2023-02-23T04:11:39.834Z,0
2023-02-23T04:12:39.837Z,0
2023-02-23T04:13:39.856Z,0
2023-02-23T04:14:39.832Z,0
2023-02-23T04:15:39.851Z,0
2023-02-23T04:16:39.855Z,0
2023-02-23T04:17:39.831Z,0
2023-02-23T04:18:39.847Z,0
2023-02-23T04:19:39.831Z,0
2023-02-23T04:20:39.856Z,0
2023-02-23T04:21:39.858Z,0
2023-02-23T04:22:39.838Z,0
2023-02-23T04:23:39.850Z,0
2023-02-23T04:24:39.827Z,0
2023-02-23T04:25:39.840Z,0
2023-02-23T04:26:39.832Z,0
2023-02-23T04:27:39.842Z,0
2023-02-23T04:28:39.859Z,0
2023-02-23T04:29:39.845Z,0
2023-02-23T04:30:39.860Z,0
2023-02-23T04:31:39.917Z,0
2023-02-23T04:32:40.048Z,0
2023-02-23T04:33:39.841Z,0
2023-02-23T04:34:39.843Z,0
2023-02-23T04:35:39.835Z,0
2023-02-23T04:36:39.828Z,0
2023-02-23T04:37:39.844Z,0
2023-02-23T04:38:39.860Z,0
2023-02-23T04:39:39.869Z,0
2023-02-23T04:40:39.843Z,0
2023-02-23T04:41:39.818Z,0
2023-02-23T04:42:39.843Z,0
2023-02-23T04:43:39.855Z,0
2023-02-23T04:44:39.833Z,0
2023-02-23T04:45:39.875Z,0
2023-02-23T04:46:39.833Z,0
2023-02-23T04:47:39.843Z,0
2023-02-23T04:48:39.862Z,0
2023-02-23T04:49:39.850Z,0
2023-02-23T04:50:39.836Z,0
2023-02-23T04:51:39.836Z,0
2023-02-23T04:52:39.848Z,0
2023-02-23T04:53:39.850Z,0
2023-02-23T04:54:39.873Z,0
2023-02-23T04:55:39.845Z,0
2023-02-23T04:56:39.835Z,0
2023-02-23T04:57:39.837Z,0
2023-02-23T04:58:39.847Z,0
2023-02-23T04:59:39.841Z,0
2023-02-23T05:00:39.850Z,0
2023-02-23T05:01:39.851Z,0
2023-02-23T05:02:39.845Z,0
2023-02-23T05:03:39.851Z,0
2023-02-23T05:04:39.954Z,0
2023-02-23T05:05:39.858Z,0
2023-02-23T05:06:39.840Z,0
2023-02-23T05:07:39.832Z,0
2023-02-23T05:08:39.851Z,0
2023-02-23T05:09:41.135Z,0
2023-02-23T05:10:40.424Z,0
2023-02-23T05:11:39.836Z,0
2023-02-23T05:12:39.832Z,0
2023-02-23T05:13:39.921Z,0
2023-02-23T05:14:39.834Z,0
2023-02-23T05:15:39.940Z,0
2023-02-23T05:16:39.851Z,0
2023-02-23T05:17:39.841Z,0
2023-02-23T05:18:39.876Z,0
2023-02-23T05:19:39.837Z,0
2023-02-23T05:20:39.832Z,0
2023-02-23T05:21:39.856Z,0
2023-02-23T05:22:39.838Z,0
2023-02-23T05:23:39.866Z,0
2023-02-23T05:24:39.852Z,0
2023-02-23T05:25:39.846Z,0
2023-02-23T05:26:39.831Z,0
2023-02-23T05:27:39.835Z,0
2023-02-23T05:28:39.854Z,0
2023-02-23T05:29:39.849Z,0
2023-02-23T05:30:39.864Z,0
2023-02-23T05:31:39.929Z,0
2023-02-23T05:32:39.860Z,0
2023-02-23T05:33:39.856Z,0
2023-02-23T05:34:39.867Z,0
2023-02-23T05:35:39.845Z,0
2023-02-23T05:36:39.837Z,0
2023-02-23T05:37:39.840Z,0
2023-02-23T05:38:39.841Z,0
2023-02-23T05:39:39.841Z,0
2023-02-23T05:40:39.847Z,0
2023-02-23T05:41:39.830Z,0
2023-02-23T05:42:39.832Z,0
2023-02-23T05:43:39.853Z,0
2023-02-23T05:44:39.838Z,0
2023-02-23T05:45:39.849Z,0
2023-02-23T05:46:39.842Z,0
2023-02-23T05:47:39.843Z,0
2023-02-23T05:48:39.857Z,0
2023-02-23T05:49:39.837Z,0.01
2023-02-23T05:50:39.851Z,0.01
2023-02-23T05:51:39.825Z,0.01
2023-02-23T05:52:39.829Z,0.01
2023-02-23T05:53:39.846Z,0.01
2023-02-23T05:54:39.840Z,0.01
2023-02-23T05:55:39.836Z,0.01
2023-02-23T05:56:39.842Z,0.02
2023-02-23T05:57:39.849Z,0.02
2023-02-23T05:58:39.848Z,0.02
2023-02-23T05:59:39.827Z,0.02
2023-02-23T06:00:39.843Z,0.03
2023-02-23T06:01:39.825Z,0.03
2023-02-23T06:02:39.889Z,0.03
2023-02-23T06:03:39.877Z,0.04
2023-02-23T06:04:39.840Z,0.04
2023-02-23T06:05:39.833Z,0.05
2023-02-23T06:06:39.841Z,0.05
2023-02-23T06:07:39.837Z,0.06
2023-02-23T06:08:39.850Z,0.06
2023-02-23T06:09:39.838Z,0.07
2023-02-23T06:10:39.849Z,0.07
2023-02-23T06:11:39.844Z,0.08
2023-02-23T06:12:39.834Z,0.08
2023-02-23T06:13:39.844Z,0.09
2023-02-23T06:14:39.843Z,0.09
2023-02-23T06:15:39.881Z,0.1
2023-02-23T06:16:39.976Z,0.11
2023-02-23T06:17:39.835Z,0.11
2023-02-23T06:18:39.840Z,0.12
2023-02-23T06:19:39.837Z,0.13
2023-02-23T06:20:40.447Z,0.13
2023-02-23T06:21:39.842Z,0.14
2023-02-23T06:22:39.837Z,0.15
2023-02-23T06:23:39.848Z,0.16
2023-02-23T06:24:39.833Z,0.16
2023-02-23T06:25:39.845Z,0.17
2023-02-23T06:26:39.840Z,0.17
2023-02-23T06:27:39.838Z,0.18
2023-02-23T06:28:39.854Z,0.18
2023-02-23T06:29:39.829Z,0.19
2023-02-23T06:30:39.897Z,0.2
2023-02-23T06:31:39.988Z,0.21
2023-02-23T06:32:39.906Z,0.22
2023-02-23T06:33:39.848Z,0.22
2023-02-23T06:34:39.828Z,0.23
2023-02-23T06:35:39.836Z,0.24
2023-02-23T06:36:39.835Z,0.25
2023-02-23T06:37:39.838Z,0.27
2023-02-23T06:38:39.848Z,0.26
2023-02-23T06:39:39.835Z,0.27
2023-02-23T06:40:39.828Z,0.28
2023-02-23T06:41:39.837Z,0.29
2023-02-23T06:42:39.856Z,0.3
2023-02-23T06:43:39.851Z,0.3
2023-02-23T06:44:39.831Z,0.31
2023-02-23T06:45:39.857Z,0.32
2023-02-23T06:46:39.906Z,0.32
2023-02-23T06:47:39.838Z,0.33
2023-02-23T06:48:40.007Z,0.34
2023-02-23T06:49:39.836Z,0.34
2023-02-23T06:50:39.837Z,0.35
2023-02-23T06:51:39.828Z,0.35
2023-02-23T06:52:39.851Z,0.37
2023-02-23T06:53:39.854Z,0.36
2023-02-23T06:54:39.844Z,0.37
2023-02-23T06:55:39.839Z,0.39
2023-02-23T06:56:39.837Z,0.39
2023-02-23T06:57:39.831Z,0.39
2023-02-23T06:58:39.842Z,0.4
2023-02-23T06:59:39.829Z,0.41
2023-02-23T07:00:39.850Z,0.41
2023-02-23T07:01:39.888Z,0.42
2023-02-23T07:02:39.834Z,0.43
2023-02-23T07:03:39.971Z,0.44
2023-02-23T07:04:39.860Z,0.45
2023-02-23T07:05:39.848Z,0.46
2023-02-23T07:06:39.836Z,0.46
2023-02-23T07:07:39.834Z,0.47
2023-02-23T07:08:39.850Z,0.49
2023-02-23T07:09:39.830Z,0.49
2023-02-23T07:10:39.841Z,0.51
2023-02-23T07:11:39.845Z,0.52
2023-02-23T07:12:39.841Z,0.53
2023-02-23T07:13:39.853Z,0.54
2023-02-23T07:14:39.824Z,0.55
2023-02-23T07:15:39.855Z,0.56
2023-02-23T07:16:39.896Z,0.57
2023-02-23T07:17:39.848Z,0.58
2023-02-23T07:18:39.849Z,0.59
2023-02-23T07:19:39.833Z,0.61
2023-02-23T07:20:39.836Z,0.61
2023-02-23T07:21:39.824Z,0.62
2023-02-23T07:22:40.120Z,0.64
2023-02-23T07:23:39.849Z,0.65
2023-02-23T07:24:39.828Z,0.66
2023-02-23T07:25:39.832Z,0.68
2023-02-23T07:26:39.833Z,0.7
2023-02-23T07:27:39.827Z,0.72
2023-02-23T07:28:39.857Z,0.73
2023-02-23T07:29:39.825Z,0.76
2023-02-23T07:30:39.911Z,0.79
2023-02-23T07:31:40.063Z,0.81
2023-02-23T07:32:39.896Z,0.84
2023-02-23T07:33:39.848Z,0.86
2023-02-23T07:34:39.824Z,0.89
2023-02-23T07:35:39.833Z,0.92
2023-02-23T07:36:39.861Z,0.94
2023-02-23T07:37:39.825Z,0.96
2023-02-23T07:38:39.851Z,0.99
2023-02-23T07:39:39.836Z,1.06
2023-02-23T07:40:39.830Z,1.12
2023-02-23T07:41:39.853Z,1.17
2023-02-23T07:42:39.833Z,1.19
2023-02-23T07:43:39.849Z,1.21
2023-02-23T07:44:39.847Z,1.28
2023-02-23T07:45:39.895Z,1.41
2023-02-23T07:46:39.834Z,1.54
2023-02-23T07:47:39.841Z,1.65
2023-02-23T07:48:39.972Z,1.65
2023-02-23T07:49:39.836Z,1.65
2023-02-23T07:50:39.845Z,1.65
2023-02-23T07:51:39.833Z,1.81
2023-02-23T07:52:39.845Z,1.83
2023-02-23T07:53:39.856Z,1.87
2023-02-23T07:54:39.843Z,1.98
2023-02-23T07:55:39.841Z,2.09
2023-02-23T07:56:39.833Z,2.17
2023-02-23T07:57:39.841Z,2.17
2023-02-23T07:58:39.863Z,2.18
2023-02-23T07:59:39.835Z,2.12
2023-02-23T08:00:39.854Z,2.14
2023-02-23T08:01:39.836Z,2.25
2023-02-23T08:02:39.846Z,2.41
2023-02-23T08:03:39.850Z,2.41
2023-02-23T08:04:39.868Z,2.33
2023-02-23T08:05:39.836Z,2.29
2023-02-23T08:06:39.842Z,2.26
2023-02-23T08:07:39.845Z,2.26
2023-02-23T08:08:39.845Z,2.27
2023-02-23T08:09:39.844Z,2.29
2023-02-23T08:10:39.839Z,2.24
2023-02-23T08:11:39.845Z,2.11
2023-02-23T08:12:39.886Z,2.09
2023-02-23T08:13:39.851Z,2.12
2023-02-23T08:14:39.847Z,2.24
2023-02-23T08:15:39.850Z,2.28
2023-02-23T08:16:39.942Z,2.07
2023-02-23T08:17:39.836Z,2.09
2023-02-23T08:18:39.960Z,2.16
2023-02-23T08:19:39.844Z,2.13
2023-02-23T08:20:39.829Z,2.09
2023-02-23T08:21:39.826Z,2.1
2023-02-23T08:22:49.425Z,2.15
2023-02-23T08:23:39.853Z,2.25
2023-02-23T08:24:39.837Z,2.43
2023-02-23T08:25:39.833Z,2.44
2023-02-23T08:26:39.850Z,2.44
2023-02-23T08:27:39.841Z,2.62
2023-02-23T08:28:39.849Z,2.7
2023-02-23T08:29:39.842Z,2.84
2023-02-23T08:30:39.962Z,2.81
2023-02-23T08:31:40.109Z,2.74
2023-02-23T08:32:39.918Z,2.68
2023-02-23T08:33:39.848Z,2.69
2023-02-23T08:34:39.847Z,2.78
2023-02-23T08:35:39.839Z,2.95
2023-02-23T08:36:39.846Z,3.01
2023-02-23T08:37:39.834Z,2.94
2023-02-23T08:38:39.852Z,2.81
2023-02-23T08:39:39.843Z,2.79
2023-02-23T08:40:39.850Z,2.74
2023-02-23T08:41:39.839Z,2.88
2023-02-23T08:42:39.829Z,2.81
2023-02-23T08:43:39.850Z,2.81
2023-02-23T08:44:39.834Z,2.77
2023-02-23T08:45:39.897Z,2.71
2023-02-23T08:46:39.847Z,2.63
2023-02-23T08:47:39.851Z,2.69
2023-02-23T08:48:39.857Z,2.76
2023-02-23T08:49:39.829Z,2.76
2023-02-23T08:50:39.844Z,2.67
2023-02-23T08:51:39.846Z,2.81
2023-02-23T08:52:39.896Z,3
2023-02-23T08:53:39.847Z,3.08
2023-02-23T08:54:39.829Z,3.06
2023-02-23T08:55:39.835Z,3.13
2023-02-23T08:56:39.837Z,3.05
2023-02-23T08:57:39.843Z,2.78
2023-02-23T08:58:39.852Z,2.66
2023-02-23T08:59:39.839Z,2.64
2023-02-23T09:00:39.849Z,2.8
2023-02-23T09:01:39.894Z,3.21
2023-02-23T09:02:39.838Z,3.51
2023-02-23T09:03:40.665Z,3.48
2023-02-23T09:04:39.834Z,3.31
2023-02-23T09:05:39.950Z,3.35
2023-02-23T09:06:39.841Z,3.37
2023-02-23T09:07:39.844Z,3.28
2023-02-23T09:08:39.845Z,3.26
2023-02-23T09:09:39.846Z,3.12
2023-02-23T09:10:39.831Z,2.97
2023-02-23T09:11:39.837Z,2.88
2023-02-23T09:12:39.851Z,2.87
2023-02-23T09:13:39.842Z,2.76
2023-02-23T09:14:39.827Z,2.53
2023-02-23T09:15:39.902Z,2.43
2023-02-23T09:16:39.836Z,2.48
2023-02-23T09:17:39.829Z,2.43
2023-02-23T09:18:39.855Z,2.43
2023-02-23T09:19:39.836Z,2.45
2023-02-23T09:20:39.844Z,2.62
2023-02-23T09:21:39.838Z,2.62
2023-02-23T09:22:39.829Z,2.75
2023-02-23T09:23:39.842Z,2.79
2023-02-23T09:24:39.831Z,2.65
2023-02-23T09:25:39.830Z,2.71
2023-02-23T09:26:39.858Z,2.63
2023-02-23T09:27:39.833Z,2.65
2023-02-23T09:28:39.851Z,2.77
2023-02-23T09:29:39.830Z,2.81
2023-02-23T09:30:39.872Z,2.8
2023-02-23T09:31:39.936Z,2.91
2023-02-23T09:32:39.939Z,2.89
2023-02-23T09:33:39.852Z,2.84
2023-02-23T09:34:39.835Z,2.76
2023-02-23T09:35:39.835Z,2.73
2023-02-23T09:36:39.844Z,3.02
2023-02-23T09:37:39.836Z,3.24
2023-02-23T09:38:39.843Z,3.23
2023-02-23T09:39:39.863Z,3.17
2023-02-23T09:40:39.829Z,3.11
2023-02-23T09:41:39.837Z,3.1
2023-02-23T09:42:39.838Z,3.26
2023-02-23T09:43:39.863Z,3.52
2023-02-23T09:44:39.826Z,3.65
2023-02-23T09:45:39.871Z,3.32
2023-02-23T09:46:39.831Z,3.25
2023-02-23T09:47:39.860Z,3.18
2023-02-23T09:48:40.025Z,3.21
2023-02-23T09:49:39.848Z,3.21
2023-02-23T09:50:39.844Z,3.82
2023-02-23T09:51:39.824Z,4.28
2023-02-23T09:52:40.180Z,4.47
2023-02-23T09:53:39.875Z,4.48
2023-02-23T09:54:39.847Z,4.64
2023-02-23T09:55:39.841Z,4.85
2023-02-23T09:56:39.837Z,5.02
2023-02-23T09:57:39.847Z,5.52
2023-02-23T09:58:39.845Z,5.76
2023-02-23T09:59:39.834Z,5.16
2023-02-23T10:00:39.856Z,4.89
2023-02-23T10:01:39.969Z,5.02
2023-02-23T10:02:39.867Z,5
2023-02-23T10:03:39.849Z,4.75
2023-02-23T10:04:39.871Z,4.39
2023-02-23T10:05:39.845Z,3.98
2023-02-23T10:06:39.841Z,3.69
2023-02-23T10:07:39.838Z,3.49
2023-02-23T10:08:39.863Z,3.45
2023-02-23T10:09:39.851Z,3.5
2023-02-23T10:10:39.947Z,3.68
2023-02-23T10:11:41.731Z,3.82
2023-02-23T10:12:39.852Z,3.72
2023-02-23T10:13:39.845Z,3.42
2023-02-23T10:14:39.839Z,3.35
2023-02-23T10:15:39.880Z,3.51
2023-02-23T10:16:39.880Z,3.74
2023-02-23T10:17:39.853Z,4.11
2023-02-23T10:18:46.642Z,4.32
2023-02-23T10:19:39.852Z,4.4
2023-02-23T10:20:39.852Z,4.54
2023-02-23T10:21:39.865Z,4.81
2023-02-23T10:22:39.837Z,5.37
2023-02-23T10:23:39.851Z,5.79
2023-02-23T10:24:39.855Z,5.91
2023-02-23T10:25:39.838Z,5.93
2023-02-23T10:26:39.841Z,5.67
2023-02-23T10:27:39.834Z,5.38
2023-02-23T10:28:39.858Z,5.14
2023-02-23T10:29:39.847Z,5.34
2023-02-23T10:30:39.922Z,5.4
2023-02-23T10:31:39.978Z,5.36
2023-02-23T10:32:39.923Z,5.45
2023-02-23T10:33:39.855Z,5.41
2023-02-23T10:34:39.841Z,5.21
2023-02-23T10:35:39.849Z,5.19
2023-02-23T10:36:39.859Z,5.21
2023-02-23T10:37:39.845Z,5.22
2023-02-23T10:38:39.864Z,5.2
2023-02-23T10:39:39.832Z,5.23
2023-02-23T10:40:39.839Z,5.21
2023-02-23T10:41:39.835Z,4.97
2023-02-23T10:42:39.831Z,4.64
2023-02-23T10:43:39.850Z,4.49
2023-02-23T10:44:39.834Z,4.33
2023-02-23T10:45:39.860Z,4.59
2023-02-23T10:46:39.890Z,4.74
2023-02-23T10:47:39.840Z,4.77
2023-02-23T10:48:39.973Z,4.82
2023-02-23T10:49:39.840Z,4.82
2023-02-23T10:50:39.849Z,4.59
2023-02-23T10:51:39.845Z,4.32
2023-02-23T10:52:42.018Z,4.29
2023-02-23T10:53:39.858Z,4.53
2023-02-23T10:54:39.835Z,4.45
2023-02-23T10:55:39.835Z,4.41
2023-02-23T10:56:39.838Z,4.67
2023-02-23T10:57:40.173Z,4.6
2023-02-23T10:58:39.858Z,4.98
2023-02-23T10:59:39.848Z,5.01
2023-02-23T11:00:39.847Z,5.18
2023-02-23T11:01:46.307Z,5.36
2023-02-23T11:02:39.869Z,5.32
2023-02-23T11:03:42.712Z,5.28
2023-02-23T11:04:39.903Z,5.17
2023-02-23T11:05:39.830Z,4.91
2023-02-23T11:06:39.845Z,4.96
2023-02-23T11:07:39.836Z,5.02
2023-02-23T11:08:39.844Z,4.9
2023-02-23T11:09:47.066Z,4.66
2023-02-23T11:10:39.834Z,4.33
2023-02-23T11:11:39.825Z,4.34
2023-02-23T11:12:39.879Z,4.36
2023-02-23T11:13:39.846Z,4.24
2023-02-23T11:14:40.771Z,4.12
2023-02-23T11:15:50.381Z,4.04
2023-02-23T11:16:39.892Z,4.07
2023-02-23T11:17:39.839Z,3.87
2023-02-23T11:18:39.854Z,3.69
2023-02-23T11:19:39.837Z,3.66
2023-02-23T11:20:39.868Z,3.68
2023-02-23T11:21:39.846Z,3.78
2023-02-23T11:22:39.833Z,3.63
2023-02-23T11:23:39.843Z,3.5
2023-02-23T11:24:39.825Z,3.48
2023-02-23T11:25:39.857Z,3.55
2023-02-23T11:26:39.833Z,3.42
2023-02-23T11:27:39.837Z,3.43
2023-02-23T11:28:39.846Z,3.19
2023-02-23T11:29:39.825Z,3.16
2023-02-23T11:30:39.862Z,3.15
2023-02-23T11:31:39.913Z,3.2
2023-02-23T11:32:39.896Z,3.09
2023-02-23T11:33:39.853Z,3.07
2023-02-23T11:34:39.836Z,2.95
2023-02-23T11:35:39.831Z,2.86
2023-02-23T11:36:39.826Z,2.83
2023-02-23T11:37:39.872Z,2.72
2023-02-23T11:38:39.841Z,2.6
2023-02-23T11:39:39.840Z,2.62
2023-02-23T11:40:39.828Z,2.68
2023-02-23T11:41:39.848Z,2.84
2023-02-23T11:42:39.821Z,3.07
2023-02-23T11:43:39.841Z,3.11
2023-02-23T11:44:39.829Z,3
2023-02-23T11:45:40.029Z,3.05
2023-02-23T11:46:39.882Z,3.22
2023-02-23T11:47:39.837Z,3.48
2023-02-23T11:48:39.845Z,3.71
2023-02-23T11:49:39.837Z,3.71
2023-02-23T11:50:39.837Z,3.71
2023-02-23T11:51:39.840Z,3.81
2023-02-23T11:52:39.827Z,3.96
2023-02-23T11:53:39.848Z,4
2023-02-23T11:54:39.836Z,4.03
2023-02-23T11:55:39.846Z,3.91
2023-02-23T11:56:39.843Z,3.67
2023-02-23T11:57:39.839Z,3.58
2023-02-23T11:58:39.847Z,3.66
2023-02-23T11:59:39.846Z,3.75
2023-02-23T12:00:39.846Z,3.65
2023-02-23T12:01:39.846Z,3.56
2023-02-23T12:02:39.833Z,3.61
2023-02-23T12:03:39.857Z,3.92
2023-02-23T12:04:39.846Z,3.9
2023-02-23T12:05:39.837Z,4.11
2023-02-23T12:06:39.954Z,4.1
2023-02-23T12:07:39.836Z,4.03
2023-02-23T12:08:39.855Z,4.07
2023-02-23T12:09:39.842Z,4.08
2023-02-23T12:10:39.890Z,4.17
2023-02-23T12:11:39.825Z,4.38
2023-02-23T12:12:39.841Z,4.4
2023-02-23T12:13:39.875Z,4.17
2023-02-23T12:14:39.838Z,4.09
2023-02-23T12:15:39.841Z,3.87
2023-02-23T12:16:39.933Z,3.87
2023-02-23T12:17:39.824Z,3.71
2023-02-23T12:18:39.853Z,3.8
2023-02-23T12:19:39.851Z,4.11
2023-02-23T12:20:39.832Z,4.51
2023-02-23T12:21:39.838Z,4.71
2023-02-23T12:22:39.835Z,5.22
2023-02-23T12:23:39.855Z,4.91
2023-02-23T12:24:39.847Z,4.55
2023-02-23T12:25:39.852Z,4.46
2023-02-23T12:26:39.844Z,4.67
2023-02-23T12:27:39.841Z,4.73
2023-02-23T12:28:39.849Z,4.73
2023-02-23T12:29:39.835Z,4.58
2023-02-23T12:30:39.917Z,4.39
2023-02-23T12:31:40.008Z,4.31
2023-02-23T12:32:39.882Z,4.36
2023-02-23T12:33:39.854Z,3.8
2023-02-23T12:34:39.827Z,3.44
2023-02-23T12:35:39.826Z,3.23
2023-02-23T12:36:39.836Z,2.97
2023-02-23T12:37:39.842Z,2.92
2023-02-23T12:38:39.849Z,3
2023-02-23T12:39:39.834Z,3.12
2023-02-23T12:40:39.843Z,3.22
2023-02-23T12:41:39.837Z,3.5
2023-02-23T12:42:39.840Z,3.62
2023-02-23T12:43:39.853Z,3.67
2023-02-23T12:44:39.833Z,3.59
2023-02-23T12:45:39.872Z,3.41
2023-02-23T12:46:39.839Z,3.17
2023-02-23T12:47:39.832Z,3.11
2023-02-23T12:48:39.863Z,3.25
2023-02-23T12:49:39.826Z,3.01
2023-02-23T12:50:39.839Z,3.01
2023-02-23T12:51:39.845Z,3.19
2023-02-23T12:52:39.829Z,3.19
2023-02-23T12:53:39.846Z,3.35
2023-02-23T12:54:39.839Z,3.64
2023-02-23T12:55:39.847Z,3.68
2023-02-23T12:56:39.848Z,3.66
2023-02-23T12:57:39.827Z,3.51
2023-02-23T12:58:39.839Z,3.17
2023-02-23T12:59:39.817Z,3.02
2023-02-23T13:00:39.827Z,2.97
2023-02-23T13:01:39.882Z,3.35
2023-02-23T13:02:39.875Z,4.04
2023-02-23T13:03:39.845Z,4.2
2023-02-23T13:04:39.847Z,3.73
2023-02-23T13:05:39.836Z,3.56
2023-02-23T13:06:39.857Z,3.6
2023-02-23T13:07:39.846Z,3.49
2023-02-23T13:08:39.851Z,3.39
2023-02-23T13:09:39.839Z,3.42
2023-02-23T13:10:39.843Z,3.26
2023-02-23T13:11:39.885Z,3.21
2023-02-23T13:12:39.857Z,2.77
2023-02-23T13:13:39.850Z,2.63
2023-02-23T13:14:39.841Z,2.78
2023-02-23T13:15:39.848Z,3.09
2023-02-23T13:16:39.867Z,3.62
2023-02-23T13:17:39.854Z,3.9
2023-02-23T13:18:39.855Z,3.87
2023-02-23T13:19:39.835Z,3.53
2023-02-23T13:20:39.851Z,3.06
2023-02-23T13:21:39.850Z,2.83
2023-02-23T13:22:39.837Z,2.77
2023-02-23T13:23:39.853Z,2.71
2023-02-23T13:24:39.839Z,2.62
2023-02-23T13:25:39.846Z,2.53
2023-02-23T13:26:39.837Z,2.75
2023-02-23T13:27:39.851Z,2.73
2023-02-23T13:28:39.871Z,3.24
2023-02-23T13:29:39.895Z,3.69
2023-02-23T13:30:39.946Z,3.04
2023-02-23T13:31:40.089Z,2.59
2023-02-23T13:32:39.901Z,2.53
2023-02-23T13:33:44.315Z,2.65
2023-02-23T13:34:39.835Z,3.96
2023-02-23T13:35:39.841Z,4.38
2023-02-23T13:36:39.848Z,4.17
2023-02-23T13:37:41.370Z,2.98
2023-02-23T13:38:39.857Z,3.21
2023-02-23T13:39:39.844Z,2.55
2023-02-23T13:40:39.859Z,3.85
2023-02-23T13:41:39.834Z,4.37
2023-02-23T13:42:39.831Z,4.68
2023-02-23T13:43:39.849Z,4.56
2023-02-23T13:44:39.850Z,5.06
2023-02-23T13:45:39.853Z,5.35
2023-02-23T13:46:39.827Z,3.73
2023-02-23T13:47:39.838Z,3.77
2023-02-23T13:48:54.270Z,3.53
2023-02-23T13:49:39.855Z,3.25
2023-02-23T13:50:39.837Z,3.25
2023-02-23T13:51:39.830Z,3.48
2023-02-23T13:52:39.888Z,3.3
2023-02-23T13:53:39.871Z,3.08
2023-02-23T13:54:39.844Z,2.77